createdAt,value
2022-12-25T00:01:15.955Z,6.95
2022-12-25T00:03:43.618Z,5.18
2022-12-25T00:06:10.601Z,10.02
2022-12-25T00:08:39.266Z,8.02
2022-12-25T00:11:09.431Z,11.32
2022-12-25T00:13:36.282Z,8.48
2022-12-25T00:16:15.012Z,9.30
2022-12-25T00:18:41.753Z,12.00
2022-12-25T00:21:08.517Z,13.43
2022-12-25T00:23:35.910Z,16.83
2022-12-25T00:26:07.870Z,15.10
2022-12-25T00:28:36.237Z,27.25
2022-12-25T00:31:08.516Z,17.77
2022-12-25T00:33:40.432Z,17.48
2022-12-25T00:36:08.966Z,16.13
2022-12-25T00:38:38.311Z,19.55
2022-12-25T00:41:11.665Z,23.17
2022-12-25T00:43:38.738Z,23.27
2022-12-25T00:46:06.649Z,20.92
2022-12-25T00:48:34.769Z,28.40
2022-12-25T00:51:07.076Z,33.38
2022-12-25T00:53:33.822Z,29.90
2022-12-25T00:56:06.153Z,32.42
2022-12-25T00:58:34.481Z,31.08
2022-12-25T01:01:01.138Z,22.10
2022-12-25T01:03:28.076Z,14.80
2022-12-25T01:06:06.284Z,28.17
2022-12-25T01:08:35.719Z,22.30
2022-12-25T01:11:05.927Z,21.55
2022-12-25T01:13:35.234Z,29.20
2022-12-25T01:16:09.736Z,33.35
2022-12-25T01:18:37.094Z,27.52
2022-12-25T01:21:08.134Z,27.52
2022-12-25T01:23:35.222Z,21.42
2022-12-25T01:26:06.668Z,37.03
2022-12-25T01:28:33.642Z,29.55
2022-12-25T01:31:00.447Z,23.70
2022-12-25T01:33:27.455Z,26.70
2022-12-25T01:35:54.222Z,17.00
2022-12-25T01:38:21.241Z,14.35
2022-12-25T01:40:48.029Z,16.40
2022-12-25T01:43:24.302Z,21.73
2022-12-25T01:45:52.803Z,21.85
2022-12-25T01:48:22.715Z,23.75
2022-12-25T01:50:55.900Z,23.67
2022-12-25T01:53:24.579Z,27.45
2022-12-25T01:55:57.531Z,30.92
2022-12-25T01:58:25.351Z,24.70
2022-12-25T02:00:52.880Z,37.08
2022-12-25T02:03:21.673Z,40.67
2022-12-25T02:05:48.852Z,33.10
2022-12-25T02:08:17.487Z,22.92
2022-12-25T02:10:44.983Z,16.37
2022-12-25T02:13:17.274Z,17.97
2022-12-25T02:15:56.079Z,19.23
2022-12-25T02:18:42.210Z,21.13
2022-12-25T02:21:14.487Z,16.90
2022-12-25T02:23:49.802Z,14.87
2022-12-25T02:26:22.791Z,31.63
2022-12-25T02:29:07.954Z,30.50
2022-12-25T02:31:59.838Z,22.90
2022-12-25T02:34:38.613Z,12.17
2022-12-25T02:37:38.526Z,29.40
2022-12-25T02:40:20.748Z,21.70
2022-12-25T02:43:12.070Z,29.07
2022-12-25T02:46:15.472Z,17.50
2022-12-25T02:49:06.861Z,24.37
2022-12-25T02:51:56.062Z,21.80
2022-12-25T02:54:49.395Z,19.67
2022-12-25T02:57:37.236Z,16.97
2022-12-25T03:00:35.428Z,16.53
2022-12-25T03:03:25.700Z,14.00
2022-12-25T03:06:15.630Z,17.13
2022-12-25T03:08:45.104Z,13.70
2022-12-25T03:11:31.306Z,20.70
2022-12-25T03:14:23.793Z,21.30
2022-12-25T03:16:55.391Z,22.57
2022-12-25T03:19:43.655Z,20.30
2022-12-25T03:22:35.642Z,22.80
2022-12-25T03:25:21.525Z,23.67
2022-12-25T03:27:52.536Z,23.23
2022-12-25T03:30:39.428Z,20.83
2022-12-25T03:33:36.775Z,21.20
2022-12-25T03:36:15.594Z,25.77
2022-12-25T03:39:16.778Z,28.67
2022-12-25T03:42:05.035Z,21.20
2022-12-25T03:45:38.475Z,22.83
2022-12-25T03:48:13.540Z,26.30
2022-12-25T03:51:12.522Z,17.03
2022-12-25T03:54:05.595Z,22.50
2022-12-25T03:56:52.091Z,18.43
2022-12-25T03:59:39.678Z,22.57
2022-12-25T04:02:25.372Z,27.93
2022-12-25T04:05:10.712Z,16.17
2022-12-25T04:10:41.456Z,31.40
2022-12-25T04:13:26.935Z,30.20
2022-12-25T04:16:12.583Z,81.33
2022-12-25T04:19:08.788Z,48.37
2022-12-25T04:21:53.776Z,43.27
2022-12-25T04:24:39.348Z,38.38
2022-12-25T04:27:24.725Z,43.57
2022-12-25T04:30:10.274Z,59.70
2022-12-25T04:32:55.465Z,49.60
2022-12-25T04:38:07.452Z,44.00
2022-12-25T04:40:34.114Z,52.83
2022-12-25T04:43:01.004Z,59.77
2022-12-25T04:45:27.698Z,52.57
2022-12-25T04:47:54.346Z,48.87
2022-12-25T04:50:21.079Z,43.73
2022-12-25T04:52:47.722Z,46.40
2022-12-25T04:55:14.498Z,70.90
2022-12-25T04:57:41.267Z,50.37
2022-12-25T05:00:08.631Z,53.70
2022-12-25T05:02:35.407Z,50.50
2022-12-25T05:05:02.726Z,39.30
2022-12-25T05:07:29.509Z,50.80
2022-12-25T05:09:56.188Z,46.73
2022-12-25T05:12:22.966Z,54.50
2022-12-25T05:14:49.674Z,52.73
2022-12-25T05:17:16.559Z,48.10
2022-12-25T05:19:43.412Z,50.93
2022-12-25T05:22:10.121Z,50.07
2022-12-25T05:24:36.740Z,50.97
2022-12-25T05:27:03.761Z,42.60
2022-12-25T05:29:30.523Z,42.97
2022-12-25T05:31:57.293Z,44.03
2022-12-25T05:34:24.046Z,46.80
2022-12-25T05:36:50.730Z,45.07
2022-12-25T05:39:17.390Z,69.60
2022-12-25T05:41:44.427Z,61.13
2022-12-25T05:44:11.159Z,67.97
2022-12-25T05:46:37.862Z,71.30
2022-12-25T05:49:05.833Z,74.13
2022-12-25T05:51:32.619Z,80.97
2022-12-25T05:53:59.491Z,72.00
2022-12-25T05:56:26.566Z,113.13
2022-12-25T05:58:54.385Z,172.53
2022-12-25T06:01:24.767Z,134.63
2022-12-25T06:03:53.235Z,85.53
2022-12-25T06:06:20.366Z,93.70
2022-12-25T06:08:47.024Z,105.67
2022-12-25T06:11:15.205Z,130.97
2022-12-25T06:13:42.376Z,121.10
2022-12-25T06:16:11.060Z,137.20
2022-12-25T06:18:46.423Z,130.82
2022-12-25T06:21:15.119Z,122.80
2022-12-25T06:23:42.268Z,120.40
2022-12-25T06:26:15.378Z,111.57
2022-12-25T06:28:42.257Z,128.40
2022-12-25T06:31:11.439Z,135.43
2022-12-25T06:33:39.052Z,143.47
2022-12-25T06:36:08.256Z,148.23
2022-12-25T06:38:35.294Z,185.60
2022-12-25T06:41:13.842Z,190.73
2022-12-25T06:43:40.641Z,205.53
2022-12-25T06:46:10.180Z,168.50
2022-12-25T06:48:38.818Z,145.57
2022-12-25T06:51:06.990Z,122.53
2022-12-25T06:53:40.628Z,101.40
2022-12-25T06:56:16.507Z,97.03
2022-12-25T06:58:44.993Z,69.03
2022-12-25T07:01:17.511Z,79.15
2022-12-25T07:03:46.070Z,75.57
2022-12-25T07:06:12.897Z,78.88
2022-12-25T07:08:39.783Z,80.00
2022-12-25T07:11:06.936Z,85.43
2022-12-25T07:13:33.790Z,94.85
2022-12-25T07:16:03.646Z,90.93
2022-12-25T07:18:31.460Z,65.57
2022-12-25T07:20:59.803Z,196.45
2022-12-25T07:23:27.261Z,97.47
2022-12-25T07:25:59.739Z,64.63
2022-12-25T07:28:27.007Z,59.85
2022-12-25T07:30:55.334Z,55.22
2022-12-25T07:33:22.075Z,31.92
2022-12-25T07:35:48.865Z,25.20
2022-12-25T07:38:15.594Z,18.23
2022-12-25T07:40:45.562Z,45.55
2022-12-25T07:43:12.697Z,26.63
2022-12-25T07:45:39.697Z,27.45
2022-12-25T07:48:09.493Z,19.08
2022-12-25T07:50:40.264Z,11.43
2022-12-25T07:53:07.167Z,13.85
2022-12-25T07:55:33.927Z,10.05
2022-12-25T07:58:00.542Z,7.75
2022-12-25T08:00:30.096Z,14.32
2022-12-25T08:02:56.996Z,10.40
2022-12-25T08:05:23.861Z,10.27
2022-12-25T08:07:57.759Z,7.80
2022-12-25T08:10:25.017Z,5.55
2022-12-25T08:12:52.148Z,4.63
2022-12-25T08:15:19.174Z,9.90
2022-12-25T08:17:46.206Z,9.25
2022-12-25T08:20:13.611Z,4.85
2022-12-25T08:22:44.679Z,8.90
2022-12-25T08:25:11.399Z,8.13
2022-12-25T08:27:38.113Z,4.40
2022-12-25T08:30:05.430Z,6.00
2022-12-25T08:32:33.849Z,4.15
2022-12-25T08:35:01.197Z,6.97
2022-12-25T08:37:30.760Z,3.75
2022-12-25T08:39:57.426Z,3.83
2022-12-25T08:42:24.310Z,7.35
2022-12-25T08:44:51.009Z,6.53
2022-12-25T08:47:17.956Z,10.05
2022-12-25T08:49:44.579Z,6.93
2022-12-25T08:52:11.681Z,8.77
2022-12-25T08:54:38.326Z,9.90
2022-12-25T08:57:05.138Z,8.13
2022-12-25T08:59:31.989Z,7.00
2022-12-25T09:01:58.821Z,10.45
2022-12-25T09:04:25.799Z,9.27
2022-12-25T09:06:52.827Z,4.43
2022-12-25T09:09:19.465Z,5.07
2022-12-25T09:11:46.144Z,7.35
2022-12-25T09:14:14.444Z,6.60
2022-12-25T09:16:41.159Z,4.72
2022-12-25T09:19:07.914Z,7.85
2022-12-25T09:21:36.970Z,5.28
2022-12-25T09:24:06.628Z,8.02
2022-12-25T09:26:33.374Z,5.93
2022-12-25T09:29:00.156Z,6.65
2022-12-25T09:31:26.895Z,5.00
2022-12-25T09:33:56.930Z,7.03
2022-12-25T09:36:24.887Z,2.90
2022-12-25T09:38:52.800Z,5.35
2022-12-25T09:41:22.578Z,5.43
2022-12-25T09:43:55.350Z,2.97
2022-12-25T09:46:26.456Z,6.28
2022-12-25T09:49:06.852Z,5.82
2022-12-25T09:51:37.645Z,8.15
2022-12-25T09:54:13.384Z,7.38
2022-12-25T09:56:40.131Z,14.45
2022-12-25T09:59:17.370Z,9.15
2022-12-25T10:01:53.218Z,4.78
2022-12-25T10:04:47.693Z,5.75
2022-12-25T10:07:40.805Z,3.78
2022-12-25T10:10:45.558Z,4.00
2022-12-25T10:13:24.406Z,6.10
2022-12-25T10:15:54.599Z,3.97
2022-12-25T10:18:44.711Z,5.35
2022-12-25T10:21:18.563Z,6.60
2022-12-25T10:24:15.659Z,8.73
2022-12-25T10:26:43.287Z,4.10
2022-12-25T10:29:14.794Z,7.97
2022-12-25T10:31:44.901Z,5.93
2022-12-25T10:34:13.287Z,6.85
2022-12-25T10:36:42.127Z,8.70
2022-12-25T10:39:17.014Z,9.45
2022-12-25T10:42:16.306Z,8.43
2022-12-25T10:44:58.734Z,7.63
2022-12-25T10:47:28.473Z,9.43
2022-12-25T10:49:55.963Z,9.35
2022-12-25T10:52:26.329Z,7.18
2022-12-25T10:54:54.007Z,7.25
2022-12-25T10:57:24.029Z,7.85
2022-12-25T10:59:56.255Z,4.45
2022-12-25T11:02:27.874Z,3.75
2022-12-25T11:05:04.346Z,6.05
2022-12-25T11:07:33.322Z,4.45
2022-12-25T11:10:19.117Z,3.53
2022-12-25T11:12:46.742Z,6.07
2022-12-25T11:15:35.469Z,3.60
2022-12-25T11:18:04.914Z,3.65
2022-12-25T11:20:33.320Z,3.53
2022-12-25T11:23:00.426Z,3.30
2022-12-25T11:25:28.450Z,5.03
2022-12-25T11:28:05.571Z,5.72
2022-12-25T11:30:33.877Z,3.03
2022-12-25T11:33:07.142Z,4.00
2022-12-25T11:35:47.676Z,3.85
2022-12-25T11:38:14.877Z,6.70
2022-12-25T11:40:47.032Z,4.45
2022-12-25T11:43:22.729Z,5.68
2022-12-25T11:45:54.950Z,3.90
2022-12-25T11:48:28.813Z,4.32
2022-12-25T11:50:59.378Z,6.78
2022-12-25T11:53:41.548Z,3.92
2022-12-25T11:56:16.359Z,4.75
2022-12-25T11:59:12.477Z,4.05
2022-12-25T12:01:53.881Z,4.68
2022-12-25T12:04:40.333Z,3.33
2022-12-25T12:07:25.755Z,3.97
2022-12-25T12:10:03.055Z,7.50
2022-12-25T12:12:48.275Z,6.78
2022-12-25T12:15:31.103Z,6.10
2022-12-25T12:18:23.109Z,4.00
2022-12-25T12:21:11.356Z,5.65
2022-12-25T12:24:08.919Z,4.82
2022-12-25T12:26:41.179Z,4.60
2022-12-25T12:29:24.524Z,4.03
2022-12-25T12:31:52.604Z,7.03
2022-12-25T12:34:55.550Z,6.32
2022-12-25T12:37:34.282Z,5.72
2022-12-25T12:40:02.468Z,5.07
2022-12-25T12:42:40.431Z,2.70
2022-12-25T12:45:10.966Z,29.83
2022-12-25T12:47:41.539Z,3.75
2022-12-25T12:50:28.125Z,5.78
2022-12-25T12:52:54.885Z,4.38
2022-12-25T12:55:33.311Z,6.75
2022-12-25T12:58:05.747Z,4.70
2022-12-25T13:01:03.685Z,2.38
2022-12-25T13:03:39.707Z,4.38
2022-12-25T13:06:26.009Z,5.07
2022-12-25T13:09:06.801Z,6.25
2022-12-25T13:11:39.975Z,6.05
2022-12-25T13:14:13.587Z,6.78
2022-12-25T13:16:42.637Z,7.10
2022-12-25T13:19:16.374Z,5.18
2022-12-25T13:21:55.859Z,7.05
2022-12-25T13:24:26.327Z,6.38
2022-12-25T13:26:54.257Z,5.53
2022-12-25T13:29:34.645Z,5.07
2022-12-25T13:32:04.311Z,8.18
2022-12-25T13:34:37.796Z,13.45
2022-12-25T13:37:10.503Z,9.70
2022-12-25T13:39:45.167Z,10.18
2022-12-25T13:42:17.425Z,7.68
2022-12-25T13:44:48.489Z,8.50
2022-12-25T13:47:27.060Z,9.20
2022-12-25T13:49:57.103Z,4.93
2022-12-25T13:52:35.720Z,7.72
2022-12-25T13:55:11.236Z,8.95
2022-12-25T13:57:41.051Z,13.27
2022-12-25T14:00:17.385Z,12.98
2022-12-25T14:02:46.419Z,12.25
2022-12-25T14:05:24.516Z,10.88
2022-12-25T14:07:56.739Z,12.35
2022-12-25T14:10:26.501Z,12.07
2022-12-25T14:12:56.108Z,13.30
2022-12-25T14:15:24.045Z,10.43
2022-12-25T14:17:52.061Z,14.38
2022-12-25T14:20:27.234Z,15.40
2022-12-25T14:22:57.563Z,18.65
2022-12-25T14:25:31.521Z,16.85
2022-12-25T14:27:59.510Z,16.90
2022-12-25T14:30:28.969Z,11.25
2022-12-25T14:32:56.829Z,12.35
2022-12-25T14:35:24.963Z,13.55
2022-12-25T14:37:57.683Z,13.95
2022-12-25T14:40:28.496Z,24.50
2022-12-25T14:43:03.365Z,36.63
2022-12-25T14:45:34.702Z,39.78
2022-12-25T14:48:39.394Z,61.63
2022-12-25T14:51:16.340Z,55.63
2022-12-25T14:53:54.856Z,53.65
2022-12-25T14:56:23.489Z,108.88
2022-12-25T14:58:56.850Z,83.18
2022-12-25T15:01:44.883Z,57.83
2022-12-25T15:04:15.190Z,135.82
2022-12-25T15:07:00.235Z,106.40
2022-12-25T15:09:29.846Z,133.18
2022-12-25T15:11:56.914Z,115.30
2022-12-25T15:14:25.668Z,101.20
2022-12-25T15:16:55.270Z,87.55
2022-12-25T15:19:34.788Z,100.68
2022-12-25T15:22:04.126Z,171.90
2022-12-25T15:24:30.886Z,233.95
2022-12-25T15:27:00.316Z,129.70
2022-12-25T15:32:21.610Z,141.27
2022-12-25T15:34:50.041Z,145.95
2022-12-25T15:37:18.317Z,168.55
2022-12-25T15:39:46.169Z,217.63
2022-12-25T15:42:19.560Z,139.90
2022-12-25T15:44:46.792Z,205.75
2022-12-25T15:47:16.119Z,194.43
2022-12-25T15:49:43.807Z,250.18
2022-12-25T15:52:14.453Z,133.15
2022-12-25T15:54:41.207Z,280.67
2022-12-25T15:57:15.959Z,156.80
2022-12-25T15:59:42.707Z,147.73
2022-12-25T16:02:18.812Z,121.38
2022-12-25T16:04:46.306Z,121.70
2022-12-25T16:07:20.526Z,126.70
2022-12-25T16:09:47.400Z,82.88
2022-12-25T16:12:14.179Z,81.57
2022-12-25T16:14:41.568Z,139.32
2022-12-25T16:17:12.069Z,158.45
2022-12-25T16:19:38.813Z,199.00
2022-12-25T16:22:20.354Z,125.43
2022-12-25T16:24:47.742Z,79.32
2022-12-25T16:27:14.444Z,142.95
2022-12-25T16:29:42.589Z,224.43
2022-12-25T16:32:15.019Z,407.70
2022-12-25T16:34:41.731Z,265.88
2022-12-25T16:37:08.563Z,222.15
2022-12-25T16:39:35.196Z,174.40
2022-12-25T16:42:01.855Z,163.57
2022-12-25T16:44:28.977Z,132.38
2022-12-25T16:46:55.759Z,129.88
2022-12-25T16:49:22.495Z,138.35
2022-12-25T16:51:50.590Z,143.48
2022-12-25T16:54:17.309Z,131.13
2022-12-25T16:56:44.019Z,120.43
2022-12-25T16:59:11.048Z,111.57
2022-12-25T17:01:43.283Z,96.75
2022-12-25T17:04:10.390Z,103.88
2022-12-25T17:06:37.696Z,103.65
2022-12-25T17:09:04.750Z,96.15
2022-12-25T17:11:32.127Z,119.43
2022-12-25T17:14:02.773Z,201.60
2022-12-25T17:16:32.328Z,165.55
2022-12-25T17:19:01.581Z,153.48
2022-12-25T17:21:29.437Z,135.93
2022-12-25T17:24:02.304Z,151.13
2022-12-25T17:26:33.197Z,141.40
2022-12-25T17:29:00.036Z,123.28
2022-12-25T17:31:26.842Z,116.65
2022-12-25T17:33:54.171Z,107.13
2022-12-25T17:36:21.995Z,121.53
2022-12-25T17:38:48.787Z,104.43
2022-12-25T17:41:17.613Z,106.93
2022-12-25T17:43:45.906Z,115.97
2022-12-25T17:46:24.869Z,131.65
2022-12-25T17:48:52.724Z,138.30
2022-12-25T17:51:21.887Z,117.18
2022-12-25T17:53:51.933Z,112.72
2022-12-25T17:56:19.692Z,136.45
2022-12-25T17:58:57.523Z,120.45
2022-12-25T18:01:26.410Z,119.93
2022-12-25T18:03:54.390Z,159.88
2022-12-25T18:06:24.221Z,95.15
2022-12-25T18:08:50.914Z,110.82
2022-12-25T18:11:20.793Z,84.20
2022-12-25T18:13:52.264Z,88.10
2022-12-25T18:16:24.410Z,175.57
2022-12-25T18:18:52.995Z,171.60
2022-12-25T18:21:21.596Z,178.40
2022-12-25T18:23:49.273Z,220.50
2022-12-25T18:26:16.437Z,174.93
2022-12-25T18:28:44.224Z,154.60
2022-12-25T18:31:14.922Z,174.80
2022-12-25T18:33:42.349Z,150.73
2022-12-25T18:36:11.069Z,184.27
2022-12-25T18:38:37.735Z,164.10
2022-12-25T18:41:06.598Z,173.90
2022-12-25T18:43:53.847Z,170.37
2022-12-25T18:46:22.474Z,160.10
2022-12-25T18:48:49.372Z,151.00
2022-12-25T18:51:16.419Z,136.10
2022-12-25T18:53:43.308Z,168.47
2022-12-25T18:56:13.211Z,142.50
2022-12-25T18:58:40.142Z,146.37
2022-12-25T19:01:21.951Z,128.20
2022-12-25T19:03:49.974Z,139.83
2022-12-25T19:06:25.320Z,125.70
2022-12-25T19:08:52.769Z,150.40
2022-12-25T19:11:20.430Z,139.43
2022-12-25T19:13:47.511Z,130.00
2022-12-25T19:16:14.486Z,122.90
2022-12-25T19:18:42.363Z,131.47
2022-12-25T19:21:09.906Z,117.63
2022-12-25T19:23:38.117Z,82.07
2022-12-25T19:26:06.057Z,102.40
2022-12-25T19:28:33.180Z,135.93
2022-12-25T19:31:01.073Z,141.93
2022-12-25T19:33:28.293Z,131.73
2022-12-25T19:36:00.656Z,111.00
2022-12-25T19:38:27.741Z,120.27
2022-12-25T19:41:03.614Z,117.57
2022-12-25T19:43:35.753Z,113.10
2022-12-25T19:46:03.738Z,103.47
2022-12-25T19:48:32.020Z,67.20
2022-12-25T19:50:58.989Z,88.23
2022-12-25T19:53:26.038Z,102.63
2022-12-25T19:55:54.043Z,94.57
2022-12-25T19:58:22.105Z,99.23
2022-12-25T20:01:05.462Z,96.43
2022-12-25T20:03:40.222Z,78.63
2022-12-25T20:06:19.931Z,81.97
2022-12-25T20:08:47.890Z,121.43
2022-12-25T20:11:15.192Z,102.13
2022-12-25T20:13:42.005Z,99.23
2022-12-25T20:16:10.606Z,105.03
2022-12-25T20:18:38.273Z,112.03
2022-12-25T20:21:08.096Z,122.40
2022-12-25T20:23:35.285Z,121.33
2022-12-25T20:26:04.861Z,130.73
2022-12-25T20:28:34.682Z,128.00
2022-12-25T20:31:06.525Z,131.83
2022-12-25T20:33:34.191Z,100.13
2022-12-25T20:36:05.244Z,117.73
2022-12-25T20:38:32.462Z,100.17
2022-12-25T20:43:52.278Z,83.23
2022-12-25T20:46:19.191Z,131.00
2022-12-25T20:48:46.100Z,124.40
2022-12-25T20:51:16.118Z,116.50
2022-12-25T20:53:43.636Z,106.93
2022-12-25T20:56:12.487Z,99.43
2022-12-25T20:58:39.733Z,88.23
2022-12-25T21:01:09.206Z,87.00
2022-12-25T21:03:35.942Z,91.63
2022-12-25T21:06:06.648Z,86.77
2022-12-25T21:08:36.744Z,85.90
2022-12-25T21:11:05.190Z,101.83
2022-12-25T21:13:35.430Z,73.60
2022-12-25T21:16:06.795Z,99.20
2022-12-25T21:18:33.519Z,96.80
2022-12-25T21:21:04.760Z,109.47
2022-12-25T21:23:31.840Z,132.87
2022-12-25T21:25:58.736Z,129.03
2022-12-25T21:28:30.221Z,214.97
2022-12-25T21:31:02.692Z,96.50
2022-12-25T21:33:49.192Z,69.93
2022-12-25T21:36:16.059Z,64.13
2022-12-25T21:38:42.794Z,51.37
2022-12-25T21:41:12.398Z,100.47
2022-12-25T21:43:40.390Z,93.20
2022-12-25T21:46:09.569Z,77.17
2022-12-25T21:48:41.510Z,87.97
2022-12-25T21:51:31.967Z,90.80
2022-12-25T21:53:59.703Z,426.70
2022-12-25T21:56:31.151Z,92.37
2022-12-25T21:59:06.725Z,78.50
2022-12-25T22:01:34.050Z,71.83
2022-12-25T22:04:05.877Z,77.33
2022-12-25T22:06:52.106Z,98.03
2022-12-25T22:09:19.427Z,76.03
2022-12-25T22:12:04.946Z,64.83
2022-12-25T22:14:54.231Z,68.27
2022-12-25T22:17:46.431Z,148.40
2022-12-25T22:20:19.255Z,134.40
2022-12-25T22:22:46.189Z,128.90
2022-12-25T22:25:14.001Z,117.00
2022-12-25T22:27:42.195Z,156.53
2022-12-25T22:30:15.471Z,127.40
2022-12-25T22:32:42.200Z,107.03
2022-12-25T22:35:09.644Z,110.83
2022-12-25T22:37:36.646Z,118.23
2022-12-25T22:40:04.479Z,119.40
2022-12-25T22:42:31.260Z,92.80
2022-12-25T22:44:58.426Z,96.50
2022-12-25T22:47:25.175Z,65.87
2022-12-25T22:49:51.860Z,71.03
2022-12-25T22:52:18.987Z,66.83
2022-12-25T22:54:45.876Z,83.70
2022-12-25T22:57:12.703Z,70.67
2022-12-25T22:59:39.496Z,61.17
2022-12-25T23:02:06.315Z,64.00
2022-12-25T23:04:33.066Z,62.37
2022-12-25T23:06:59.958Z,62.40
2022-12-25T23:09:29.661Z,70.50
2022-12-25T23:11:58.194Z,70.60
2022-12-25T23:14:41.931Z,57.30
2022-12-25T23:17:32.179Z,53.10
2022-12-25T23:20:19.951Z,63.80
2022-12-25T23:23:05.412Z,67.40
2022-12-25T23:25:54.086Z,67.27
2022-12-25T23:28:40.963Z,71.33
2022-12-25T23:31:08.264Z,73.93
2022-12-25T23:33:35.157Z,63.87
2022-12-25T23:36:01.795Z,60.10
2022-12-25T23:38:28.896Z,55.13
2022-12-25T23:40:55.622Z,56.40
2022-12-25T23:43:22.321Z,57.03
2022-12-25T23:45:49.160Z,59.77
2022-12-25T23:48:15.807Z,62.47
2022-12-25T23:50:42.484Z,51.30
2022-12-25T23:53:11.162Z,42.63
2022-12-25T23:55:37.967Z,36.63
2022-12-25T23:58:05.085Z,40.90
